Dundurn, Canada
Current Conditions -  °F | °C
As of 3:00 PM on Tuesday 27 Jan 2015 (Local Time) from CYXE Reporting Station
Overcast Overcast  
Wind Chill: 30°   Ceiling: 25000
Heat Index: 37°   Visibility: 15mi
Dew Point: 32°   Wind: 10mph
Humidity: 81%   Direction: 50°NE
Pressure: 29.85"   Gusts: NA
Location:  51.8°N, 106.5°W
Report Text: CYXE 272100Z 05009KT 15SM FEW120 OVC250 03/M00 A2985 RMK AC2CI6 SLP132
Loading
Personal Weather Stations






























Interactive Weather Map New forecast layout! Learn more

10-Day Weather Forecast

Advertisements
Track Severe Weather on mobile